»·PEaware :: N445SN L88-KSBP

N445SN :: L88-KSBP

FLIGHT INFORMATION

Flight Status: Arrived
Operator: Privately registered:
United States
More flights under this callsign
Pilot: Jeremy W. (20490)
Aircraft: CESSNA 152 AEROBAT
(C152)
More flights by this aircraft type
Origin: L88 New Cuyama
United States
Destination: KSBP San Luis Co Regl
United States
More flights between these airports :: More routes between these airports
Route:
File this flight plan on PilotEdge
Remarks:
Altitude:
(Current/Filed)
6,500ft
Speed:
(Current/Filed)
107kts
Departed: 29-Sep-18 12:56 PM
Arrived: 29-Sep-18 01:31 PM
Distance/Time
Traveled:
50nm/0:35
Distance/Time
To Go:
Arrived

Flight Plot

Page will automatically refresh every two minutes.


Map Options




Map Legend


Flown Route
Filed Route
Departure Airport
Arrival Airport
Navaid (VOR, NDB)
Fix

Horizontal Profiles

Position Reports

Time Latitude Longitude Heading Altitude Ground
Speed
29-Sep-18 12:46 34.942855 -119.690286 204 2155ft 0kts
29-Sep-18 12:47 34.942855 -119.690286 204 2155ft 0kts
29-Sep-18 12:48 34.942855 -119.690286 204 2155ft 0kts
29-Sep-18 12:49 34.942855 -119.690286 204 2155ft 0kts
29-Sep-18 12:50 34.942855 -119.690286 204 2155ft 0kts
29-Sep-18 12:51 34.942855 -119.690286 204 2155ft 0kts
29-Sep-18 12:52 34.942862 -119.690978 267 2154ft 2kts
29-Sep-18 12:53 34.942726 -119.691178 191 2154ft 0kts
29-Sep-18 12:54 34.942699 -119.691187 197 2154ft 0kts
29-Sep-18 12:55 34.942647 -119.691211 200 2154ft 0kts
29-Sep-18 12:56 34.942647 -119.691211 200 2154ft 0kts
29-Sep-18 12:57 34.942229 -119.691157 120 2155ft 7kts
29-Sep-18 12:58 34.935864 -119.670890 85 2487ft 84kts
29-Sep-18 12:59 34.952389 -119.678055 295 3066ft 81kts
29-Sep-18 13:00 34.963981 -119.702147 302 3662ft 83kts
29-Sep-18 13:01 34.979027 -119.723679 311 4211ft 85kts
29-Sep-18 13:02 34.996821 -119.743165 314 4740ft 86kts
29-Sep-18 13:03 35.011184 -119.764911 295 5254ft 80kts
29-Sep-18 13:04 35.026648 -119.785718 318 5681ft 84kts
29-Sep-18 13:05 35.044751 -119.803703 305 6102ft 84kts
29-Sep-18 13:06 35.059027 -119.825724 307 6502ft 83kts
29-Sep-18 13:07 35.075678 -119.847892 315 6523ft 90kts
29-Sep-18 13:08 35.089292 -119.873486 278 6522ft 90kts
29-Sep-18 13:09 35.094997 -119.904547 291 6473ft 93kts
29-Sep-18 13:10 35.105400 -119.931962 272 6453ft 93kts
29-Sep-18 13:11 35.108858 -119.962516 280 6530ft 89kts
29-Sep-18 13:12 35.116506 -119.992535 290 6525ft 92kts
29-Sep-18 13:13 35.122109 -120.023799 267 6493ft 95kts
29-Sep-18 13:14 35.125000 -120.055442 286 6478ft 95kts
29-Sep-18 13:15 35.133113 -120.086169 284 6469ft 94kts
29-Sep-18 13:16 35.139607 -120.116870 284 6470ft 93kts
29-Sep-18 13:17 35.144317 -120.148243 277 6359ft 95kts
29-Sep-18 13:18 35.145301 -120.173873 272 6410ft 92kts
29-Sep-18 13:19 35.153806 -120.208014 288 6461ft 92kts
29-Sep-18 13:20 35.161174 -120.233948 279 6453ft 97kts
29-Sep-18 13:21 35.166274 -120.266494 269 6538ft 97kts
29-Sep-18 13:22 35.170002 -120.299819 275 6524ft 101kts
29-Sep-18 13:23 35.176226 -120.339611 280 6476ft 105kts
29-Sep-18 13:24 35.182572 -120.367489 280 6479ft 101kts
29-Sep-18 13:25 35.187226 -120.401342 272 6466ft 101kts
29-Sep-18 13:26 35.189773 -120.435006 276 6466ft 101kts
29-Sep-18 13:27 35.197017 -120.467804 280 6049ft 101kts
29-Sep-18 13:28 35.201438 -120.501225 281 5135ft 103kts
29-Sep-18 13:29 35.200998 -120.535163 264 3765ft 102kts
29-Sep-18 13:30 35.203580 -120.568935 297 2191ft 108kts
29-Sep-18 13:31 35.214321 -120.600059 302 1007ft 96kts
29-Sep-18 13:32 35.227371 -120.623244 299 496ft 79kts
29-Sep-18 13:33 35.236356 -120.639494 294 215ft 19kts
29-Sep-18 13:34 35.238150 -120.640003 315 215ft 6kts
29-Sep-18 13:35 35.238280 -120.640171 331 215ft 0kts
29-Sep-18 13:36 35.238280 -120.640171 331 215ft 0kts
29-Sep-18 13:37 35.238280 -120.640171 331 215ft 0kts
29-Sep-18 13:38 35.238280 -120.640171 331 215ft 0kts
29-Sep-18 13:39 35.238280 -120.640171 331 215ft 0kts
29-Sep-18 13:40 35.238280 -120.640171 331 215ft 0kts
29-Sep-18 13:41 35.238280 -120.640171 331 215ft 0kts
29-Sep-18 13:42 35.238280 -120.640171 331 215ft 0kts
29-Sep-18 13:43 35.238280 -120.640172 331 215ft 0kts
29-Sep-18 13:44 35.238280 -120.640172 331 215ft 0kts
29-Sep-18 13:45 35.238261 -120.640255 209 215ft 0kts
29-Sep-18 13:46 35.238261 -120.640255 209 215ft 0kts
29-Sep-18 13:47 35.238261 -120.640255 209 215ft 0kts
29-Sep-18 13:48 35.238261 -120.640255 209 215ft 0kts

Navigation Log

Ident Type
Flight plan parsing failed, navigation log unavailable